sensor_id;sensor_type;location;lat;lon;timestamp;pressure;altitude;pressure_sealevel;temperature;humidity
10796;BME280;5450;42.994;23.372;2022-10-26T00:24:52;96872.22;;;11.85;100.00
10796;BME280;5450;42.994;23.372;2022-10-26T00:27:50;96850.19;;;11.86;100.00
10796;BME280;5450;42.994;23.372;2022-10-26T00:40:23;96799.44;;;11.60;100.00
10796;BME280;5450;42.994;23.372;2022-10-26T01:06:49;96727.22;;;10.89;100.00
10796;BME280;5450;42.994;23.372;2022-10-26T01:10:12;96711.75;;;10.86;100.00
10796;BME280;5450;42.994;23.372;2022-10-26T01:41:58;96870.41;;;11.44;100.00
10796;BME280;5450;42.994;23.372;2022-10-26T01:44:46;96788.72;;;11.04;100.00
10796;BME280;5450;42.994;23.372;2022-10-26T01:52:16;96874.19;;;11.41;100.00
10796;BME280;5450;42.994;23.372;2022-10-26T02:00:24;96806.53;;;11.18;100.00
10796;BME280;5450;42.994;23.372;2022-10-26T02:03:54;96669.94;;;10.25;100.00
10796;BME280;5450;42.994;23.372;2022-10-26T02:07:00;96864.47;;;11.34;100.00
10796;BME280;5450;42.994;23.372;2022-10-26T02:09:57;96876.63;;;11.35;100.00
10796;BME280;5450;42.994;23.372;2022-10-26T02:20:02;96851.69;;;11.39;100.00
10796;BME280;5450;42.994;23.372;2022-10-26T02:22:48;96843.44;;;11.34;100.00
10796;BME280;5450;42.994;23.372;2022-10-26T02:26:02;96851.50;;;11.32;100.00
10796;BME280;5450;42.994;23.372;2022-10-26T02:29:04;96855.72;;;11.25;100.00
10796;BME280;5450;42.994;23.372;2022-10-26T03:16:15;96916.16;;;10.66;100.00
10796;BME280;5450;42.994;23.372;2022-10-26T06:35:08;96816.59;;;9.32;100.00
10796;BME280;5450;42.994;23.372;2022-10-26T06:56:53;96991.88;;;11.57;100.00
10796;BME280;5450;42.994;23.372;2022-10-26T07:07:02;97008.94;;;12.12;100.00
10796;BME280;5450;42.994;23.372;2022-10-26T07:09:30;96848.84;;;11.32;100.00
10796;BME280;5450;42.994;23.372;2022-10-26T07:19:18;96978.41;;;12.84;100.00
10796;BME280;5450;42.994;23.372;2022-10-26T07:21:46;96880.38;;;12.40;100.00
10796;BME280;5450;42.994;23.372;2022-10-26T07:24:17;96932.59;;;12.85;100.00
10796;BME280;5450;42.994;23.372;2022-10-26T07:30:25;96937.16;;;13.23;100.00
10796;BME280;5450;42.994;23.372;2022-10-26T07:32:58;96983.72;;;13.79;100.00
10796;BME280;5450;42.994;23.372;2022-10-26T07:35:27;96986.78;;;13.99;100.00
10796;BME280;5450;42.994;23.372;2022-10-26T07:38:03;96988.69;;;14.13;100.00
10796;BME280;5450;42.994;23.372;2022-10-26T07:41:19;96948.06;;;14.14;100.00
10796;BME280;5450;42.994;23.372;2022-10-26T07:44:21;96953.47;;;14.51;100.00
10796;BME280;5450;42.994;23.372;2022-10-26T07:47:10;96979.16;;;14.65;100.00
10796;BME280;5450;42.994;23.372;2022-10-26T07:49:43;96971.81;;;14.75;100.00
10796;BME280;5450;42.994;23.372;2022-10-26T07:56:13;96970.91;;;15.05;100.00
10796;BME280;5450;42.994;23.372;2022-10-26T07:58:55;96933.63;;;14.92;100.00
10796;BME280;5450;42.994;23.372;2022-10-26T08:07:58;96975.22;;;15.73;100.00
10796;BME280;5450;42.994;23.372;2022-10-26T08:10:25;96910.72;;;15.66;100.00
10796;BME280;5450;42.994;23.372;2022-10-26T08:16:35;96771.78;;;15.18;100.00
10796;BME280;5450;42.994;23.372;2022-10-26T08:22:45;96891.53;;;16.35;100.00
10796;BME280;5450;42.994;23.372;2022-10-26T08:25:37;96927.28;;;16.75;100.00
10796;BME280;5450;42.994;23.372;2022-10-26T08:31:49;96931.72;;;17.17;100.00
10796;BME280;5450;42.994;23.372;2022-10-26T08:37:51;96919.47;;;17.50;100.00
10796;BME280;5450;42.994;23.372;2022-10-26T08:40:25;96841.97;;;17.06;100.00
10796;BME280;5450;42.994;23.372;2022-10-26T08:53:20;96932.19;;;18.43;94.75
10796;BME280;5450;42.994;23.372;2022-10-26T08:59:33;96933.91;;;18.83;90.40
10796;BME280;5450;42.994;23.372;2022-10-26T09:02:10;96909.72;;;18.84;86.85
10796;BME280;5450;42.994;23.372;2022-10-26T09:04:39;96937.19;;;19.11;85.95
10796;BME280;5450;42.994;23.372;2022-10-26T09:07:35;96913.84;;;19.26;82.88
10796;BME280;5450;42.994;23.372;2022-10-26T09:10:36;96918.56;;;19.44;81.77
10796;BME280;5450;42.994;23.372;2022-10-26T09:13:32;96918.53;;;19.63;79.43
10796;BME280;5450;42.994;23.372;2022-10-26T09:16:06;96911.50;;;19.76;78.20
10796;BME280;5450;42.994;23.372;2022-10-26T09:18:45;96869.50;;;19.58;75.10
10796;BME280;5450;42.994;23.372;2022-10-26T09:25:02;96905.19;;;20.21;73.48
10796;BME280;5450;42.994;23.372;2022-10-26T09:28:00;96898.31;;;20.38;69.32
10796;BME280;5450;42.994;23.372;2022-10-26T09:33:46;96826.41;;;20.12;62.95
10796;BME280;5450;42.994;23.372;2022-10-26T09:36:18;96892.88;;;20.58;62.67
10796;BME280;5450;42.994;23.372;2022-10-26T09:38:55;96883.78;;;20.65;58.64
10796;BME280;5450;42.994;23.372;2022-10-26T09:51:43;96861.16;;;21.24;60.05
10796;BME280;5450;42.994;23.372;2022-10-26T09:54:35;96868.66;;;21.51;59.27
10796;BME280;5450;42.994;23.372;2022-10-26T10:03:38;96868.38;;;21.77;53.26
10796;BME280;5450;42.994;23.372;2022-10-26T10:06:30;96857.09;;;21.75;51.38
10796;BME280;5450;42.994;23.372;2022-10-26T10:09:06;96852.31;;;21.77;50.23
10796;BME280;5450;42.994;23.372;2022-10-26T10:12:01;96846.94;;;21.84;52.87
10796;BME280;5450;42.994;23.372;2022-10-26T10:14:54;96849.28;;;21.92;52.35
10796;BME280;5450;42.994;23.372;2022-10-26T10:17:22;96741.19;;;21.16;53.19
10796;BME280;5450;42.994;23.372;2022-10-26T10:23:29;96861.31;;;22.19;51.95
10796;BME280;5450;42.994;23.372;2022-10-26T10:26:07;96846.75;;;22.27;53.72
10796;BME280;5450;42.994;23.372;2022-10-26T10:31:58;96776.16;;;21.80;54.30
10796;BME280;5450;42.994;23.372;2022-10-26T10:37:56;96809.47;;;21.84;54.76
10796;BME280;5450;42.994;23.372;2022-10-26T10:40:25;96839.06;;;21.89;55.88
10796;BME280;5450;42.994;23.372;2022-10-26T10:46:25;96830.97;;;22.07;56.70
10796;BME280;5450;42.994;23.372;2022-10-26T10:52:22;96823.59;;;22.21;53.21
10796;BME280;5450;42.994;23.372;2022-10-26T10:55:05;96813.38;;;22.29;55.94
10796;BME280;5450;42.994;23.372;2022-10-26T10:58:04;96804.50;;;22.17;55.66
10796;BME280;5450;42.994;23.372;2022-10-26T11:00:36;96728.94;;;21.74;57.90
10796;BME280;5450;42.994;23.372;2022-10-26T11:06:26;96808.84;;;22.30;55.63
10796;BME280;5450;42.994;23.372;2022-10-26T11:09:23;96798.56;;;22.27;56.31
10796;BME280;5450;42.994;23.372;2022-10-26T11:11:57;96794.44;;;22.42;55.16
10796;BME280;5450;42.994;23.372;2022-10-26T11:14:30;96757.50;;;22.21;54.43
10796;BME280;5450;42.994;23.372;2022-10-26T11:17:04;96781.66;;;22.56;54.83
10796;BME280;5450;42.994;23.372;2022-10-26T11:19:37;96792.47;;;22.49;52.00
10796;BME280;5450;42.994;23.372;2022-10-26T11:22:14;96777.44;;;22.07;54.03
10796;BME280;5450;42.994;23.372;2022-10-26T11:24:49;96792.34;;;22.03;54.77
10796;BME280;5450;42.994;23.372;2022-10-26T11:27:29;96769.63;;;21.76;54.75
10796;BME280;5450;42.994;23.372;2022-10-26T11:33:45;96782.09;;;22.00;55.36
10796;BME280;5450;42.994;23.372;2022-10-26T11:36:17;96730.53;;;21.75;58.08
10796;BME280;5450;42.994;23.372;2022-10-26T11:42:20;96793.38;;;22.32;56.09
10796;BME280;5450;42.994;23.372;2022-10-26T11:48:14;96781.09;;;22.13;55.10
10796;BME280;5450;42.994;23.372;2022-10-26T11:50:49;96780.47;;;21.99;52.09
10796;BME280;5450;42.994;23.372;2022-10-26T11:53:22;96771.94;;;21.91;53.50
10796;BME280;5450;42.994;23.372;2022-10-26T11:55:52;96777.94;;;22.04;55.23
10796;BME280;5450;42.994;23.372;2022-10-26T12:11:37;96775.53;;;21.96;53.52
10796;BME280;5450;42.994;23.372;2022-10-26T12:14:16;96768.94;;;21.99;49.41
10796;BME280;5450;42.994;23.372;2022-10-26T12:16:51;96765.13;;;22.06;51.76
10796;BME280;5450;42.994;23.372;2022-10-26T12:19:24;96761.53;;;22.12;52.75
10796;BME280;5450;42.994;23.372;2022-10-26T12:21:52;96754.75;;;21.98;53.74
10796;BME280;5450;42.994;23.372;2022-10-26T12:24:28;96753.25;;;22.02;50.71
10796;BME280;5450;42.994;23.372;2022-10-26T12:27:02;96756.97;;;22.01;50.23
10796;BME280;5450;42.994;23.372;2022-10-26T12:29:38;96733.81;;;21.77;47.40
10796;BME280;5450;42.994;23.372;2022-10-26T12:35:44;96755.97;;;21.84;45.08
10796;BME280;5450;42.994;23.372;2022-10-26T12:41:25;96742.59;;;21.66;48.06
10796;BME280;5450;42.994;23.372;2022-10-26T12:46:54;96758.94;;;21.76;46.97
10796;BME280;5450;42.994;23.372;2022-10-26T12:52:41;96761.91;;;21.68;45.88
10796;BME280;5450;42.994;23.372;2022-10-26T13:01:35;96764.47;;;21.45;48.64
10796;BME280;5450;42.994;23.372;2022-10-26T13:04:31;96763.13;;;21.36;45.14
10796;BME280;5450;42.994;23.372;2022-10-26T13:07:17;96766.84;;;21.35;45.62
10796;BME280;5450;42.994;23.372;2022-10-26T13:09:52;96761.94;;;21.32;45.90
10796;BME280;5450;42.994;23.372;2022-10-26T13:12:22;96763.75;;;21.20;45.73
10796;BME280;5450;42.994;23.372;2022-10-26T13:15:00;96751.69;;;21.10;46.93
10796;BME280;5450;42.994;23.372;2022-10-26T13:17:31;96744.88;;;20.90;50.33
10796;BME280;5450;42.994;23.372;2022-10-26T13:20:02;96776.41;;;21.06;48.39
10796;BME280;5450;42.994;23.372;2022-10-26T13:22:31;96736.63;;;20.73;48.27
10796;BME280;5450;42.994;23.372;2022-10-26T13:25:01;96732.72;;;20.51;47.82
10796;BME280;5450;42.994;23.372;2022-10-26T13:27:43;96675.97;;;20.13;49.30
10796;BME280;5450;42.994;23.372;2022-10-26T13:30:20;96777.22;;;20.82;49.18
10796;BME280;5450;42.994;23.372;2022-10-26T13:32:50;96775.22;;;20.77;49.23
10796;BME280;5450;42.994;23.372;2022-10-26T13:35:21;96782.03;;;20.73;50.14
10796;BME280;5450;42.994;23.372;2022-10-26T13:37:52;96757.13;;;20.30;51.83
10796;BME280;5450;42.994;23.372;2022-10-26T13:40:23;96790.16;;;20.60;51.15
10796;BME280;5450;42.994;23.372;2022-10-26T13:42:53;96747.34;;;20.24;50.12
10796;BME280;5450;42.994;23.372;2022-10-26T13:45:24;96792.28;;;20.52;52.67
10796;BME280;5450;42.994;23.372;2022-10-26T13:47:56;96714.38;;;19.81;52.18
10796;BME280;5450;42.994;23.372;2022-10-26T13:50:27;96792.84;;;20.35;51.61
10796;BME280;5450;42.994;23.372;2022-10-26T13:52:59;96795.69;;;20.34;52.16
10796;BME280;5450;42.994;23.372;2022-10-26T13:55:30;96799.47;;;20.26;52.40
10796;BME280;5450;42.994;23.372;2022-10-26T13:58:13;96802.78;;;20.22;54.72
10796;BME280;5450;42.994;23.372;2022-10-26T14:01:03;96802.00;;;20.08;53.90
10796;BME280;5450;42.994;23.372;2022-10-26T14:03:40;96801.41;;;20.06;56.86
10796;BME280;5450;42.994;23.372;2022-10-26T14:06:14;96805.16;;;19.99;55.11
10796;BME280;5450;42.994;23.372;2022-10-26T14:08:43;96776.97;;;19.72;57.40
10796;BME280;5450;42.994;23.372;2022-10-26T14:11:13;96793.16;;;19.77;55.69
10796;BME280;5450;42.994;23.372;2022-10-26T14:13:42;96725.34;;;19.02;59.67
10796;BME280;5450;42.994;23.372;2022-10-26T14:16:14;96823.13;;;19.72;56.72
10796;BME280;5450;42.994;23.372;2022-10-26T14:18:52;96787.13;;;19.43;57.99
10796;BME280;5450;42.994;23.372;2022-10-26T14:21:23;96714.34;;;18.85;56.42
10796;BME280;5450;42.994;23.372;2022-10-26T14:23:57;96817.81;;;19.65;59.24
10796;BME280;5450;42.994;23.372;2022-10-26T14:26:27;96820.28;;;19.60;57.02
10796;BME280;5450;42.994;23.372;2022-10-26T14:28:57;96821.34;;;19.53;56.11
10796;BME280;5450;42.994;23.372;2022-10-26T14:31:28;96823.59;;;19.49;58.05
10796;BME280;5450;42.994;23.372;2022-10-26T14:33:57;96831.00;;;19.47;59.04
10796;BME280;5450;42.994;23.372;2022-10-26T14:36:38;96815.44;;;19.31;58.15
10796;BME280;5450;42.994;23.372;2022-10-26T14:39:17;96741.38;;;18.76;61.30
10796;BME280;5450;42.994;23.372;2022-10-26T14:41:49;96838.19;;;19.34;63.32
10796;BME280;5450;42.994;23.372;2022-10-26T14:44:19;96793.41;;;18.85;63.67
10796;BME280;5450;42.994;23.372;2022-10-26T14:46:47;96761.09;;;18.62;64.60
10796;BME280;5450;42.994;23.372;2022-10-26T14:49:18;96792.59;;;18.71;64.80
10796;BME280;5450;42.994;23.372;2022-10-26T14:51:55;96847.47;;;18.99;65.28
10796;BME280;5450;42.994;23.372;2022-10-26T14:54:24;96852.38;;;18.95;63.69
10796;BME280;5450;42.994;23.372;2022-10-26T14:56:52;96856.09;;;18.81;65.02
10796;BME280;5450;42.994;23.372;2022-10-26T14:59:21;96846.88;;;18.90;63.75
10796;BME280;5450;42.994;23.372;2022-10-26T15:01:52;96856.91;;;18.88;63.68
10796;BME280;5450;42.994;23.372;2022-10-26T15:04:30;96865.91;;;18.87;63.42
10796;BME280;5450;42.994;23.372;2022-10-26T15:07:07;96859.34;;;18.83;64.42
10796;BME280;5450;42.994;23.372;2022-10-26T15:09:41;96837.22;;;18.63;63.28
10796;BME280;5450;42.994;23.372;2022-10-26T15:12:25;96810.16;;;18.40;64.70
10796;BME280;5450;42.994;23.372;2022-10-26T15:14:54;96856.91;;;18.62;63.16
10796;BME280;5450;42.994;23.372;2022-10-26T15:17:23;96870.81;;;18.64;62.35
10796;BME280;5450;42.994;23.372;2022-10-26T15:19:54;96725.19;;;17.66;61.67
10796;BME280;5450;42.994;23.372;2022-10-26T15:22:25;96886.13;;;18.42;63.76
10796;BME280;5450;42.994;23.372;2022-10-26T15:24:56;96895.31;;;18.40;63.16
10796;BME280;5450;42.994;23.372;2022-10-26T15:27:24;96789.91;;;17.52;62.61
10796;BME280;5450;42.994;23.372;2022-10-26T15:30:08;96897.13;;;18.26;65.00
10796;BME280;5450;42.994;23.372;2022-10-26T15:32:39;96844.41;;;17.82;64.96
10796;BME280;5450;42.994;23.372;2022-10-26T15:35:28;96887.47;;;18.05;64.83
10796;BME280;5450;42.994;23.372;2022-10-26T15:38:00;96886.56;;;17.85;66.14
10796;BME280;5450;42.994;23.372;2022-10-26T15:40:27;96898.03;;;17.92;67.44
10796;BME280;5450;42.994;23.372;2022-10-26T15:42:59;96860.28;;;17.56;67.29
10796;BME280;5450;42.994;23.372;2022-10-26T15:45:29;96809.56;;;17.17;67.99
10796;BME280;5450;42.994;23.372;2022-10-26T15:47:58;96922.13;;;17.78;69.55
10796;BME280;5450;42.994;23.372;2022-10-26T15:50:28;96840.22;;;17.19;67.14
10796;BME280;5450;42.994;23.372;2022-10-26T15:53:00;96926.94;;;17.68;66.68
10796;BME280;5450;42.994;23.372;2022-10-26T15:55:29;96928.84;;;17.46;69.77
10796;BME280;5450;42.994;23.372;2022-10-26T15:57:59;96866.44;;;16.74;71.13
10796;BME280;5450;42.994;23.372;2022-10-26T16:00:27;96920.72;;;16.99;70.74
10796;BME280;5450;42.994;23.372;2022-10-26T16:02:55;96950.97;;;16.98;72.67
10796;BME280;5450;42.994;23.372;2022-10-26T16:05:23;96943.56;;;16.93;73.32
10796;BME280;5450;42.994;23.372;2022-10-26T16:07:50;96947.16;;;16.86;74.01
10796;BME280;5450;42.994;23.372;2022-10-26T16:10:21;96963.38;;;16.70;75.54
10796;BME280;5450;42.994;23.372;2022-10-26T16:12:49;96948.03;;;16.50;74.54
10796;BME280;5450;42.994;23.372;2022-10-26T16:15:18;96948.94;;;16.22;75.90
10796;BME280;5450;42.994;23.372;2022-10-26T16:17:46;96927.59;;;15.94;75.07
10796;BME280;5450;42.994;23.372;2022-10-26T16:20:15;96922.88;;;15.89;77.57
10796;BME280;5450;42.994;23.372;2022-10-26T16:22:44;96958.75;;;15.92;80.45
10796;BME280;5450;42.994;23.372;2022-10-26T16:25:14;96968.09;;;15.88;80.76
10796;BME280;5450;42.994;23.372;2022-10-26T16:27:44;96890.50;;;15.21;82.49
10796;BME280;5450;42.994;23.372;2022-10-26T16:30:12;96971.19;;;15.48;83.20
10796;BME280;5450;42.994;23.372;2022-10-26T16:32:40;96970.75;;;15.22;84.58
10796;BME280;5450;42.994;23.372;2022-10-26T16:35:09;96918.56;;;14.78;83.99
10796;BME280;5450;42.994;23.372;2022-10-26T16:37:38;96959.53;;;14.82;84.35
10796;BME280;5450;42.994;23.372;2022-10-26T16:40:08;96992.22;;;14.89;86.31
10796;BME280;5450;42.994;23.372;2022-10-26T16:42:36;96988.69;;;14.74;87.78
10796;BME280;5450;42.994;23.372;2022-10-26T16:45:11;96996.31;;;14.69;87.93
10796;BME280;5450;42.994;23.372;2022-10-26T16:47:51;96986.53;;;14.47;88.88
10796;BME280;5450;42.994;23.372;2022-10-26T16:50:19;96987.03;;;14.51;88.83
10796;BME280;5450;42.994;23.372;2022-10-26T16:52:49;97015.34;;;14.42;89.92
10796;BME280;5450;42.994;23.372;2022-10-26T16:55:21;97018.63;;;14.44;90.55
10796;BME280;5450;42.994;23.372;2022-10-26T16:57:50;96999.72;;;14.24;90.58
10796;BME280;5450;42.994;23.372;2022-10-26T17:00:20;97027.28;;;14.30;91.45
10796;BME280;5450;42.994;23.372;2022-10-26T17:02:49;97018.78;;;14.04;91.66
10796;BME280;5450;42.994;23.372;2022-10-26T17:05:17;97013.41;;;13.89;92.51
10796;BME280;5450;42.994;23.372;2022-10-26T17:07:47;97024.78;;;13.90;92.78
10796;BME280;5450;42.994;23.372;2022-10-26T17:10:15;97028.91;;;13.92;91.82
10796;BME280;5450;42.994;23.372;2022-10-26T17:12:46;97031.66;;;14.07;91.72
10796;BME280;5450;42.994;23.372;2022-10-26T17:15:14;97051.09;;;14.22;90.66
10796;BME280;5450;42.994;23.372;2022-10-26T17:17:43;97035.94;;;14.16;90.80
10796;BME280;5450;42.994;23.372;2022-10-26T17:20:12;96856.44;;;12.90;92.11
10796;BME280;5450;42.994;23.372;2022-10-26T17:22:39;97024.50;;;13.77;91.93
10796;BME280;5450;42.994;23.372;2022-10-26T17:25:08;97041.19;;;13.77;92.90
10796;BME280;5450;42.994;23.372;2022-10-26T17:27:35;97053.22;;;13.72;94.73
10796;BME280;5450;42.994;23.372;2022-10-26T17:30:04;97051.53;;;13.87;94.14
10796;BME280;5450;42.994;23.372;2022-10-26T17:32:31;97051.97;;;14.06;93.31
10796;BME280;5450;42.994;23.372;2022-10-26T17:35:00;97055.09;;;14.10;93.40
10796;BME280;5450;42.994;23.372;2022-10-26T17:37:29;97050.81;;;14.09;94.25
10796;BME280;5450;42.994;23.372;2022-10-26T17:39:58;97051.78;;;14.16;93.35
10796;BME280;5450;42.994;23.372;2022-10-26T17:42:28;97060.31;;;14.26;91.88
10796;BME280;5450;42.994;23.372;2022-10-26T17:44:58;97035.94;;;14.08;91.32
10796;BME280;5450;42.994;23.372;2022-10-26T17:47:25;97067.44;;;14.25;91.61
10796;BME280;5450;42.994;23.372;2022-10-26T17:49:55;97064.97;;;14.24;92.05
10796;BME280;5450;42.994;23.372;2022-10-26T17:52:25;97061.38;;;14.09;93.24
10796;BME280;5450;42.994;23.372;2022-10-26T17:54:53;97061.72;;;14.06;93.11
10796;BME280;5450;42.994;23.372;2022-10-26T17:57:20;97072.63;;;14.11;92.61
10796;BME280;5450;42.994;23.372;2022-10-26T17:59:47;97054.22;;;13.79;93.76
10796;BME280;5450;42.994;23.372;2022-10-26T18:02:15;97085.28;;;13.68;96.46
10796;BME280;5450;42.994;23.372;2022-10-26T18:04:43;97011.06;;;13.23;95.72
10796;BME280;5450;42.994;23.372;2022-10-26T18:07:10;97076.72;;;13.50;95.64
10796;BME280;5450;42.994;23.372;2022-10-26T18:09:40;96981.88;;;12.60;98.93
10796;BME280;5450;42.994;23.372;2022-10-26T18:12:11;96989.91;;;12.51;99.01
10796;BME280;5450;42.994;23.372;2022-10-26T18:14:41;97096.16;;;13.49;97.63
10796;BME280;5450;42.994;23.372;2022-10-26T18:17:09;97099.81;;;13.56;97.40
10796;BME280;5450;42.994;23.372;2022-10-26T18:19:37;97035.34;;;13.19;97.18
10796;BME280;5450;42.994;23.372;2022-10-26T18:22:08;97096.50;;;13.54;97.55
10796;BME280;5450;42.994;23.372;2022-10-26T18:24:36;97074.06;;;13.58;97.27
10796;BME280;5450;42.994;23.372;2022-10-26T18:27:07;97086.75;;;13.63;97.16
10796;BME280;5450;42.994;23.372;2022-10-26T18:29:37;97086.91;;;13.69;96.60
10796;BME280;5450;42.994;23.372;2022-10-26T18:32:05;97096.50;;;13.71;96.87
10796;BME280;5450;42.994;23.372;2022-10-26T18:34:33;96983.69;;;13.00;96.55
10796;BME280;5450;42.994;23.372;2022-10-26T18:37:02;97048.69;;;13.33;96.79
10796;BME280;5450;42.994;23.372;2022-10-26T18:39:31;97019.63;;;12.85;99.26
10796;BME280;5450;42.994;23.372;2022-10-26T18:42:00;97074.38;;;12.99;98.88
10796;BME280;5450;42.994;23.372;2022-10-26T18:44:40;96975.97;;;12.08;99.39
10796;BME280;5450;42.994;23.372;2022-10-26T18:47:09;97027.38;;;12.12;100.00
10796;BME280;5450;42.994;23.372;2022-10-26T18:49:41;97055.94;;;12.41;100.00
10796;BME280;5450;42.994;23.372;2022-10-26T18:52:12;97131.09;;;13.03;100.00
10796;BME280;5450;42.994;23.372;2022-10-26T18:54:40;97148.28;;;13.15;99.52
10796;BME280;5450;42.994;23.372;2022-10-26T18:57:09;97145.31;;;13.10;99.85
10796;BME280;5450;42.994;23.372;2022-10-26T18:59:39;97144.72;;;12.82;100.00
10796;BME280;5450;42.994;23.372;2022-10-26T19:02:12;97061.88;;;12.35;100.00
10796;BME280;5450;42.994;23.372;2022-10-26T19:04:40;97157.09;;;12.82;100.00
10796;BME280;5450;42.994;23.372;2022-10-26T19:07:08;96974.63;;;11.37;100.00
10796;BME280;5450;42.994;23.372;2022-10-26T19:09:35;97155.19;;;12.25;100.00
10796;BME280;5450;42.994;23.372;2022-10-26T19:12:04;97186.19;;;12.31;100.00
10796;BME280;5450;42.994;23.372;2022-10-26T19:14:31;97156.75;;;12.09;100.00
10796;BME280;5450;42.994;23.372;2022-10-26T19:17:00;97180.06;;;11.96;100.00
10796;BME280;5450;42.994;23.372;2022-10-26T19:19:30;97164.63;;;12.01;100.00
10796;BME280;5450;42.994;23.372;2022-10-26T19:21:58;97049.16;;;11.37;100.00
10796;BME280;5450;42.994;23.372;2022-10-26T19:24:25;97062.88;;;11.49;100.00
10796;BME280;5450;42.994;23.372;2022-10-26T19:26:52;97186.28;;;12.47;100.00
10796;BME280;5450;42.994;23.372;2022-10-26T19:29:21;97180.81;;;12.40;100.00
10796;BME280;5450;42.994;23.372;2022-10-26T19:31:50;97191.78;;;12.28;100.00
10796;BME280;5450;42.994;23.372;2022-10-26T19:34:19;97200.28;;;12.22;100.00
10796;BME280;5450;42.994;23.372;2022-10-26T19:36:47;97200.47;;;12.20;100.00
10796;BME280;5450;42.994;23.372;2022-10-26T19:39:15;97202.09;;;11.95;100.00
10796;BME280;5450;42.994;23.372;2022-10-26T19:41:43;97092.09;;;11.03;100.00
10796;BME280;5450;42.994;23.372;2022-10-26T19:44:11;97207.06;;;11.98;100.00
10796;BME280;5450;42.994;23.372;2022-10-26T19:46:39;97215.34;;;12.03;100.00
10796;BME280;5450;42.994;23.372;2022-10-26T19:49:07;97210.78;;;12.13;100.00
10796;BME280;5450;42.994;23.372;2022-10-26T19:51:36;97212.66;;;12.21;100.00
10796;BME280;5450;42.994;23.372;2022-10-26T19:54:03;97216.63;;;12.25;100.00
10796;BME280;5450;42.994;23.372;2022-10-26T19:56:31;97121.84;;;11.56;100.00
10796;BME280;5450;42.994;23.372;2022-10-26T19:58:59;97229.94;;;12.24;100.00
10796;BME280;5450;42.994;23.372;2022-10-26T20:01:26;97234.88;;;12.18;100.00
10796;BME280;5450;42.994;23.372;2022-10-26T20:03:54;97223.25;;;12.03;100.00
10796;BME280;5450;42.994;23.372;2022-10-26T20:06:22;97231.88;;;12.13;100.00
10796;BME280;5450;42.994;23.372;2022-10-26T20:08:51;97141.44;;;11.62;100.00
10796;BME280;5450;42.994;23.372;2022-10-26T20:11:23;97240.34;;;11.99;100.00
10796;BME280;5450;42.994;23.372;2022-10-26T20:13:51;97061.09;;;10.89;100.00
10796;BME280;5450;42.994;23.372;2022-10-26T20:16:20;97243.94;;;11.98;100.00
10796;BME280;5450;42.994;23.372;2022-10-26T20:18:48;97245.69;;;11.90;100.00
10796;BME280;5450;42.994;23.372;2022-10-26T20:21:16;97081.13;;;10.90;100.00
10796;BME280;5450;42.994;23.372;2022-10-26T20:23:43;97188.16;;;11.42;100.00
10796;BME280;5450;42.994;23.372;2022-10-26T20:26:13;97256.16;;;11.99;100.00
10796;BME280;5450;42.994;23.372;2022-10-26T20:28:43;97243.50;;;11.85;100.00
10796;BME280;5450;42.994;23.372;2022-10-26T20:31:13;97190.16;;;11.48;100.00
10796;BME280;5450;42.994;23.372;2022-10-26T20:33:40;97263.97;;;11.91;100.00
10796;BME280;5450;42.994;23.372;2022-10-26T20:36:09;97143.19;;;10.83;100.00
10796;BME280;5450;42.994;23.372;2022-10-26T20:38:39;97090.84;;;10.72;100.00
10796;BME280;5450;42.994;23.372;2022-10-26T20:41:11;97278.84;;;11.65;100.00
10796;BME280;5450;42.994;23.372;2022-10-26T20:43:41;97218.00;;;11.51;100.00
10796;BME280;5450;42.994;23.372;2022-10-26T20:46:10;97093.28;;;10.55;100.00
10796;BME280;5450;42.994;23.372;2022-10-26T20:48:46;97156.25;;;10.75;100.00
10796;BME280;5450;42.994;23.372;2022-10-26T20:51:23;97166.47;;;10.78;100.00
10796;BME280;5450;42.994;23.372;2022-10-26T20:53:57;97238.88;;;11.17;100.00
10796;BME280;5450;42.994;23.372;2022-10-26T20:56:29;97120.44;;;10.46;100.00
10796;BME280;5450;42.994;23.372;2022-10-26T20:59:07;97132.53;;;10.57;100.00
10796;BME280;5450;42.994;23.372;2022-10-26T21:01:41;97303.34;;;11.48;100.00
10796;BME280;5450;42.994;23.372;2022-10-26T21:04:09;97135.25;;;10.47;100.00
10796;BME280;5450;42.994;23.372;2022-10-26T21:10:08;97296.72;;;11.44;100.00
10796;BME280;5450;42.994;23.372;2022-10-26T21:12:37;97271.00;;;11.38;100.00
10796;BME280;5450;42.994;23.372;2022-10-26T21:15:08;97301.38;;;11.50;100.00
10796;BME280;5450;42.994;23.372;2022-10-26T21:17:35;97286.94;;;11.36;100.00
10796;BME280;5450;42.994;23.372;2022-10-26T21:20:04;97278.88;;;11.20;100.00
10796;BME280;5450;42.994;23.372;2022-10-26T21:22:32;97300.19;;;11.44;100.00
10796;BME280;5450;42.994;23.372;2022-10-26T21:24:59;97301.91;;;11.36;100.00
10796;BME280;5450;42.994;23.372;2022-10-26T21:27:26;97165.25;;;10.45;100.00
10796;BME280;5450;42.994;23.372;2022-10-26T21:29:53;97282.13;;;11.32;100.00
10796;BME280;5450;42.994;23.372;2022-10-26T21:32:40;97148.66;;;10.44;100.00
10796;BME280;5450;42.994;23.372;2022-10-26T21:35:30;97241.53;;;10.90;100.00
10796;BME280;5450;42.994;23.372;2022-10-26T21:37:58;97300.41;;;11.33;100.00
10796;BME280;5450;42.994;23.372;2022-10-26T21:40:25;97226.97;;;10.68;100.00
10796;BME280;5450;42.994;23.372;2022-10-26T21:42:52;97293.13;;;11.18;100.00
10796;BME280;5450;42.994;23.372;2022-10-26T21:45:19;97230.63;;;10.85;100.00
10796;BME280;5450;42.994;23.372;2022-10-26T21:47:51;97293.13;;;11.18;100.00
10796;BME280;5450;42.994;23.372;2022-10-26T21:50:21;97183.63;;;10.54;100.00
10796;BME280;5450;42.994;23.372;2022-10-26T21:52:51;97191.19;;;10.57;100.00
10796;BME280;5450;42.994;23.372;2022-10-26T21:55:18;97290.03;;;11.05;100.00
10796;BME280;5450;42.994;23.372;2022-10-26T21:57:45;97175.34;;;10.13;100.00
10796;BME280;5450;42.994;23.372;2022-10-26T22:00:14;97224.84;;;10.44;100.00
10796;BME280;5450;42.994;23.372;2022-10-26T22:02:42;97297.03;;;10.87;100.00